Aérodrome :
LOGIN :

S'inscrire | Disclaimer

   EN    FR    IT 

 










Légende :    VFR   VFR Marginal   IFR   IFR Intensif   IFR Très Intensif
Visi : 
Plafond : 
>= 8 km
>= 3000ft
5 à 8 km
1000 à 3000 ft
1500m à 5 km
500 à 1000 ft
800 à 1500m
200 à 500 ft
< 800m
< 200 ft
Symboles :   Orages  Brouillard  Fortes neiges  Fortes précipitations  Vent > 20 kt
SIGMETs :   Divers  Orages  Givrage  Turbulence  Onde Orograph.  Cendres Volcan.






- Altitude de l'aérodrome : 1 ft


EGCK - Caernarfon

DERNIER METAR :
  • 220650Z AUTO 04005KT 010V110 9999 BKN042/// 07/04 Q0992

METARs EXPIRÉS :
  • 220620Z AUTO 04006KT 340V070 9999 SCT041/// 07/04 Q0992
  • 220550Z AUTO VRB04KT 9999 FEW016/// BKN041/// 07/04 Q0992
  • 220520Z AUTO 07004KT 340V130 9999 -RA SCT044/// 07/04 Q0992
  • 220450Z AUTO VRB02KT 9999 SCT021/// BKN044/// 07/03 Q0993
  • 220420Z AUTO VRB10KT 9999 NCD 08/03 Q0992

TAF TAF EGCK
Valide du 22 à 06h jusqu'au 22 à 15h UTC


220455Z 2206/2215 08008KT 9999 FEW010 SCT020
PROB40
TEMPO 2206/2215 14015G25KT 6000 RA BKN012



MET'MAP, la Météo Aéronautique d'un coup d'oeil ! - Copyright ORBIFLY Décembre 2007 - Disclaimer

ORBIFLY MET'MAP TEAM :

Programmation & Développement : Alexandra Zaïnal
Conception & Développement : Baudouin d'Aumeries
Co-Programmation & Développement : Marc-Olivier Méhu
Soutien technique & logistique : Manuel Goepfert

Contact : metmap@orbifly.com




SOURCES & CREDITS :

   NOAA